<?xml version="1.0" encoding="UTF-8" standalone="no" ?>
<gpx xmlns="http://www.topografix.com/GPX/1/1" xmlns:xsi="http://www.w3.org/2001/XMLSchema-instance" xsi:schemaLocation="http://www.topografix.com/GPX/1/1 http://www.topografix.com/GPX/1/1/gpx.xsd" version="1.1" creator="VisuGPX - https://www.visugpx.com">
  <metadata>
    <name>Argentina</name>
    <desc><![CDATA[Downloaded from eMap Software Version 2.75]]></desc>
  </metadata>
  <trk>
    <name><![CDATA[Argentina_115]]></name>
    <extensions>
      <line xmlns="http://www.topografix.com/GPX/gpx_style/0/2">
        <color>ff0000</color>
        <opacity>0.78</opacity>
        <width>0.6000</width>
      </line>
    </extensions>
    <trkseg>
      <trkpt lat="43.61697" lon="6.94149">
        <ele>114.053589</ele>
        <time>2009-08-22T09:29:26Z</time>
      </trkpt>
      <trkpt lat="43.61707" lon="6.94145">
        <ele>135.202515</ele>
        <time>2009-08-22T09:29:39Z</time>
      </trkpt>
      <trkpt lat="43.61716" lon="6.94156">
        <ele>140.970459</ele>
        <time>2009-08-22T09:29:57Z</time>
      </trkpt>
      <trkpt lat="43.61718" lon="6.94164">
        <ele>141.931763</ele>
        <time>2009-08-22T09:30:18Z</time>
      </trkpt>
      <trkpt lat="43.61725" lon="6.94166">
        <ele>140.489868</ele>
        <time>2009-08-22T09:30:58Z</time>
      </trkpt>
      <trkpt lat="43.61742" lon="6.94194">
        <ele>142.412476</ele>
        <time>2009-08-22T09:31:37Z</time>
      </trkpt>
      <trkpt lat="43.61742" lon="6.9422">
        <ele>145.296387</ele>
        <time>2009-08-22T09:32:06Z</time>
      </trkpt>
      <trkpt lat="43.61755" lon="6.94224">
        <ele>145.296387</ele>
        <time>2009-08-22T09:32:18Z</time>
      </trkpt>
      <trkpt lat="43.61765" lon="6.94218">
        <ele>147.699707</ele>
        <time>2009-08-22T09:32:28Z</time>
      </trkpt>
      <trkpt lat="43.61778" lon="6.94229">
        <ele>148.661011</ele>
        <time>2009-08-22T09:32:43Z</time>
      </trkpt>
      <trkpt lat="43.61791" lon="6.94254">
        <ele>151.064209</ele>
        <time>2009-08-22T09:33:04Z</time>
      </trkpt>
      <trkpt lat="43.61791" lon="6.94263">
        <ele>150.583618</ele>
        <time>2009-08-22T09:33:10Z</time>
      </trkpt>
      <trkpt lat="43.61795" lon="6.94312">
        <ele>149.141602</ele>
        <time>2009-08-22T09:33:45Z</time>
      </trkpt>
      <trkpt lat="43.61802" lon="6.9431">
        <ele>150.583618</ele>
        <time>2009-08-22T09:34:00Z</time>
      </trkpt>
      <trkpt lat="43.61806" lon="6.94323">
        <ele>150.103027</ele>
        <time>2009-08-22T09:35:00Z</time>
      </trkpt>
      <trkpt lat="43.61815" lon="6.94342">
        <ele>151.064209</ele>
        <time>2009-08-22T09:36:12Z</time>
      </trkpt>
      <trkpt lat="43.61841" lon="6.9436">
        <ele>151.544922</ele>
        <time>2009-08-22T09:36:44Z</time>
      </trkpt>
      <trkpt lat="43.61864" lon="6.94385">
        <ele>152.506348</ele>
        <time>2009-08-22T09:37:16Z</time>
      </trkpt>
      <trkpt lat="43.61871" lon="6.94394">
        <ele>152.986938</ele>
        <time>2009-08-22T09:37:28Z</time>
      </trkpt>
      <trkpt lat="43.61873" lon="6.94411">
        <ele>152.986938</ele>
        <time>2009-08-22T09:37:40Z</time>
      </trkpt>
      <trkpt lat="43.6189" lon="6.94445">
        <ele>151.544922</ele>
        <time>2009-08-22T09:38:12Z</time>
      </trkpt>
      <trkpt lat="43.61871" lon="6.94493">
        <ele>152.025757</ele>
        <time>2009-08-22T09:39:02Z</time>
      </trkpt>
      <trkpt lat="43.61847" lon="6.94538">
        <ele>150.583618</ele>
        <time>2009-08-22T09:39:52Z</time>
      </trkpt>
      <trkpt lat="43.61817" lon="6.94581">
        <ele>146.738403</ele>
        <time>2009-08-22T09:40:45Z</time>
      </trkpt>
      <trkpt lat="43.61821" lon="6.94589">
        <ele>145.296387</ele>
        <time>2009-08-22T09:40:56Z</time>
      </trkpt>
      <trkpt lat="43.61817" lon="6.94604">
        <ele>141.45105</ele>
        <time>2009-08-22T09:41:18Z</time>
      </trkpt>
      <trkpt lat="43.61821" lon="6.94641">
        <ele>139.047852</ele>
        <time>2009-08-22T09:41:51Z</time>
      </trkpt>
      <trkpt lat="43.61832" lon="6.94677">
        <ele>135.683105</ele>
        <time>2009-08-22T09:42:30Z</time>
      </trkpt>
      <trkpt lat="43.61813" lon="6.94686">
        <ele>120.302124</ele>
        <time>2009-08-22T09:43:10Z</time>
      </trkpt>
      <trkpt lat="43.61808" lon="6.94705">
        <ele>114.53418</ele>
        <time>2009-08-22T09:43:26Z</time>
      </trkpt>
      <trkpt lat="43.61802" lon="6.94718">
        <ele>114.053589</ele>
        <time>2009-08-22T09:43:44Z</time>
      </trkpt>
      <trkpt lat="43.61795" lon="6.94735">
        <ele>112.130981</ele>
        <time>2009-08-22T09:44:04Z</time>
      </trkpt>
      <trkpt lat="43.6178" lon="6.94763">
        <ele>110.688843</ele>
        <time>2009-08-22T09:44:35Z</time>
      </trkpt>
      <trkpt lat="43.61772" lon="6.94772">
        <ele>107.805054</ele>
        <time>2009-08-22T09:44:44Z</time>
      </trkpt>
      <trkpt lat="43.61765" lon="6.94806">
        <ele>103.959717</ele>
        <time>2009-08-22T09:45:08Z</time>
      </trkpt>
      <trkpt lat="43.61765" lon="6.9481">
        <ele>103.959717</ele>
        <time>2009-08-22T09:45:10Z</time>
      </trkpt>
      <trkpt lat="43.61759" lon="6.94823">
        <ele>102.037109</ele>
        <time>2009-08-22T09:45:21Z</time>
      </trkpt>
      <trkpt lat="43.61735" lon="6.94845">
        <ele>100.595093</ele>
        <time>2009-08-22T09:45:51Z</time>
      </trkpt>
    </trkseg>
  </trk>
</gpx>